Time;durP1;ratioP1;P1;durP2;ratioP2;P2;SDS_P1;SDS_P2;PMS_P1;PMS_P2;Temp;Humidity;BMP_temperature;BMP_pressure;BME280_temperature;BME280_humidity;BME280_pressure;Samples;Min_cycle;Max_cycle;Signal;HPM_P1;HPM_P2
2023/12/26 00:00:17;;;;;;;0.90;0.90;;;17.90;73.80;18.80;99987.00;;;;5068004;28;20193;-42
2023/12/26 00:02:42;;;;;;;1.60;1.07;;;17.90;73.80;18.80;99975.00;;;;5069182;28;20210;-41
2023/12/26 00:05:08;;;;;;;1.10;1.10;;;17.90;73.80;18.80;99976.00;;;;5066801;28;20186;-41
2023/12/26 00:07:34;;;;;;;1.10;1.00;;;17.90;73.80;18.80;99965.00;;;;5067881;28;20181;-42
2023/12/26 00:09:59;;;;;;;1.03;1.03;;;17.90;73.70;18.80;99953.00;;;;5068794;28;20228;-43
2023/12/26 00:12:25;;;;;;;1.10;0.90;;;17.90;73.70;18.80;99969.00;;;;5066764;28;20197;-42
2023/12/26 00:14:51;;;;;;;0.80;0.80;;;17.90;73.60;18.80;99958.00;;;;5064534;28;20189;-42
2023/12/26 00:17:17;;;;;;;1.03;1.00;;;17.80;73.50;18.80;99960.00;;;;5067590;28;20178;-42
2023/12/26 00:19:43;;;;;;;0.70;0.70;;;17.90;74.40;18.80;99971.00;;;;5067179;28;20612;-42
2023/12/26 00:22:09;;;;;;;1.03;1.00;;;17.80;73.50;18.70;99960.00;;;;5069921;28;20213;-41
2023/12/26 00:24:34;;;;;;;0.90;0.90;;;17.80;73.50;18.70;99963.00;;;;5064177;28;20216;-42
2023/12/26 00:27:00;;;;;;;0.70;0.70;;;17.80;73.40;18.70;99962.00;;;;5066227;28;20308;-42
2023/12/26 00:29:26;;;;;;;0.80;0.80;;;17.80;74.30;18.70;99947.00;;;;5071065;28;20904;-41
2023/12/26 00:31:52;;;;;;;0.90;0.90;;;17.80;73.40;18.70;99938.00;;;;5063969;28;20674;-42
2023/12/26 00:34:17;;;;;;;0.50;0.50;;;17.80;73.30;18.70;99945.00;;;;5065644;28;20195;-41
2023/12/26 00:36:43;;;;;;;0.80;0.80;;;17.70;73.30;18.70;99948.00;;;;5063786;28;20554;-41
2023/12/26 00:39:09;;;;;;;1.73;0.93;;;17.70;73.30;18.70;99959.00;;;;5065682;28;20525;-42
2023/12/26 00:41:35;;;;;;;0.77;0.70;;;17.70;73.30;18.70;99947.00;;;;5066799;28;20269;-41
2023/12/26 00:44:00;;;;;;;0.90;0.90;;;17.70;73.20;18.70;99951.00;;;;5068361;28;20182;-42
2023/12/26 00:46:26;;;;;;;0.50;0.50;;;17.70;73.20;18.70;99937.00;;;;5065256;28;20610;-42
2023/12/26 00:48:52;;;;;;;0.73;0.73;;;17.70;73.20;18.70;99939.00;;;;5070665;28;20691;-42
2023/12/26 00:51:18;;;;;;;0.90;0.90;;;17.70;73.20;18.70;99942.00;;;;5066464;28;20197;-41
2023/12/26 00:53:43;;;;;;;0.80;0.80;;;17.70;73.20;18.60;99944.00;;;;5066790;28;20594;-42
2023/12/26 00:56:09;;;;;;;0.63;0.63;;;17.70;73.20;18.60;99934.00;;;;5068517;28;20262;-42
2023/12/26 00:58:35;;;;;;;0.53;0.53;;;17.70;73.20;18.70;99925.00;;;;5064856;28;20702;-42
2023/12/26 01:01:01;;;;;;;0.70;0.70;;;17.70;73.20;18.70;99938.00;;;;5067243;28;20230;-41
2023/12/26 01:03:27;;;;;;;0.73;0.67;;;17.70;73.10;18.70;99938.00;;;;5040244;28;20204;-41
2023/12/26 01:05:52;;;;;;;0.63;0.63;;;17.70;73.10;18.70;99944.00;;;;5065762;28;20188;-42
2023/12/26 01:08:18;;;;;;;0.60;0.60;;;17.70;73.10;18.70;99959.00;;;;5035963;28;20169;-42
2023/12/26 01:10:44;;;;;;;0.97;0.80;;;17.60;73.00;18.60;99943.00;;;;5066189;28;20219;-43
2023/12/26 01:13:10;;;;;;;0.60;0.60;;;17.60;73.10;18.60;99940.00;;;;5074884;28;20242;-43
2023/12/26 01:15:36;;;;;;;0.40;0.40;;;17.60;73.00;18.60;99931.00;;;;5070604;28;20174;-42
2023/12/26 01:18:02;;;;;;;0.77;0.77;;;17.60;73.00;18.60;99922.00;;;;5065851;28;20182;-43
2023/12/26 01:20:29;;;;;;;0.80;0.60;;;17.60;73.00;18.60;99940.00;;;;5065305;28;20212;-42
2023/12/26 01:22:55;;;;;;;0.60;0.60;;;17.60;73.00;18.60;99931.00;;;;5066444;28;20184;-42
2023/12/26 01:25:21;;;;;;;0.90;0.60;;;17.60;73.00;18.60;99921.00;;;;5065209;28;20177;-42
2023/12/26 01:27:47;;;;;;;0.87;0.60;;;17.60;72.90;18.60;99930.00;;;;5058870;28;20234;-42
2023/12/26 01:30:13;;;;;;;0.70;0.70;;;17.60;73.00;18.60;99938.00;;;;5065732;28;20192;-42
2023/12/26 01:32:39;;;;;;;0.90;0.70;;;17.50;72.90;18.60;99935.00;;;;5064993;28;20264;-42
2023/12/26 01:35:06;;;;;;;0.50;0.50;;;17.60;73.00;18.60;99923.00;;;;5059140;28;20209;-42
2023/12/26 01:37:32;;;;;;;0.70;0.67;;;17.50;72.90;18.60;99935.00;;;;5038955;28;20169;-41
2023/12/26 01:39:57;;;;;;;0.63;0.63;;;17.50;72.90;18.60;99932.00;;;;5065414;28;20221;-41
2023/12/26 01:42:23;;;;;;;0.53;0.53;;;17.60;73.10;18.60;99940.00;;;;5039912;28;20177;-41
2023/12/26 01:44:49;;;;;;;0.70;0.70;;;17.60;73.10;18.50;99940.00;;;;5064733;28;20173;-42
2023/12/26 01:47:15;;;;;;;0.70;0.70;;;17.50;72.90;18.50;99928.00;;;;5066117;28;20235;-42
2023/12/26 01:49:40;;;;;;;0.70;0.70;;;17.50;73.00;18.50;99935.00;;;;5067702;28;20199;-41
2023/12/26 01:52:08;;;;;;;0.43;0.43;;;17.50;73.00;18.50;99941.00;;;;5063581;28;20287;-41
2023/12/26 01:54:33;;;;;;;0.73;0.73;;;17.50;73.10;18.50;99932.00;;;;5058968;28;20185;-43
2023/12/26 01:56:59;;;;;;;0.40;0.40;;;17.50;73.10;18.50;99925.00;;;;5051621;28;20199;-41
2023/12/26 01:59:26;;;;;;;0.57;0.57;;;17.50;73.00;18.50;99930.00;;;;5034524;28;20252;-41
2023/12/26 02:01:51;;;;;;;0.87;0.87;;;17.50;72.90;18.50;99935.00;;;;5033638;28;20802;-41
2023/12/26 02:04:17;;;;;;;0.70;0.70;;;17.50;72.90;18.50;99934.00;;;;5065831;28;20181;-43
2023/12/26 02:06:43;;;;;;;0.67;0.67;;;17.50;73.70;18.50;99944.00;;;;5071529;28;20200;-42
2023/12/26 02:09:10;;;;;;;0.57;0.57;;;17.40;72.70;18.50;99941.00;;;;5063354;28;20177;-42
2023/12/26 02:11:38;;;;;;;0.50;0.50;;;17.40;72.80;18.50;99943.00;;;;5050206;28;20217;-41
2023/12/26 02:14:05;;;;;;;1.03;0.70;;;17.30;72.70;18.50;99948.00;;;;5066617;28;20523;-43
2023/12/26 02:16:31;;;;;;;0.50;0.50;;;17.40;72.80;18.50;99955.00;;;;5039046;28;20189;-41
2023/12/26 02:18:56;;;;;;;1.13;0.60;;;17.40;72.90;18.40;99946.00;;;;5051947;28;20206;-42
2023/12/26 02:21:22;;;;;;;0.70;0.70;;;17.40;73.00;18.50;99967.00;;;;5035809;28;20563;-42
2023/12/26 02:23:53;;;;;;;1.23;0.50;;;17.40;73.00;18.40;99968.00;;;;5064134;28;20247;-42
2023/12/26 02:26:23;;;;;;;0.67;0.53;;;17.40;73.10;18.40;99957.00;;;;5062511;28;20640;-42
2023/12/26 02:28:49;;;;;;;0.43;0.43;;;17.40;73.30;18.40;99969.00;;;;5029693;28;20527;-41
2023/12/26 02:31:15;;;;;;;0.93;0.93;;;17.40;73.10;18.40;99971.00;;;;5038022;28;20726;-41
2023/12/26 02:33:41;;;;;;;0.67;0.67;;;17.40;73.90;18.40;99973.00;;;;5047768;28;20174;-43
2023/12/26 02:36:07;;;;;;;0.50;0.50;;;17.30;73.00;18.40;99974.00;;;;5047982;28;20193;-41
2023/12/26 02:38:32;;;;;;;1.77;0.77;;;17.40;73.00;18.40;99975.00;;;;5034344;28;20268;-42
2023/12/26 02:40:58;;;;;;;0.60;0.60;;;17.30;73.00;18.40;99967.00;;;;5051827;28;20222;-41
2023/12/26 02:43:26;;;;;;;0.97;0.93;;;17.30;72.90;18.40;99968.00;;;;5064172;28;20517;-44
2023/12/26 02:45:52;;;;;;;0.77;0.77;;;17.40;73.00;18.40;99973.00;;;;5064065;28;20180;-42
2023/12/26 02:48:18;;;;;;;0.60;0.60;;;17.30;73.70;18.40;99976.00;;;;5064825;28;20180;-42
2023/12/26 02:50:45;;;;;;;0.70;0.70;;;17.30;72.90;18.30;99984.00;;;;5060165;28;20190;-42
2023/12/26 02:53:10;;;;;;;0.50;0.50;;;17.30;72.90;18.30;99993.00;;;;5063039;28;20221;-42
2023/12/26 02:55:36;;;;;;;0.53;0.53;;;17.30;72.90;18.30;99980.00;;;;5049443;28;20194;-42
2023/12/26 02:58:02;;;;;;;0.60;0.60;;;17.30;72.90;18.30;99987.00;;;;5065436;28;20173;-42
2023/12/26 03:00:28;;;;;;;0.70;0.70;;;17.30;72.80;18.30;99979.00;;;;5048171;28;20662;-42
2023/12/26 03:02:54;;;;;;;0.97;0.90;;;17.30;72.90;18.30;99983.00;;;;5061856;28;20178;-42
2023/12/26 03:05:19;;;;;;;1.13;0.80;;;17.30;73.00;18.30;99980.00;;;;5067548;28;20263;-43
2023/12/26 03:07:45;;;;;;;0.80;0.80;;;17.30;73.00;18.30;99974.00;;;;5067616;28;20173;-42
2023/12/26 03:10:11;;;;;;;0.70;0.70;;;17.30;72.90;18.30;99980.00;;;;5068491;28;20208;-42
2023/12/26 03:12:37;;;;;;;0.93;0.93;;;17.20;72.90;18.30;99985.00;;;;5064437;28;20212;-42
2023/12/26 03:15:04;;;;;;;0.30;0.23;;;17.20;72.80;18.30;99960.00;;;;5081058;28;20187;-42
2023/12/26 03:17:29;;;;;;;0.93;0.83;;;17.20;72.80;18.30;99984.00;;;;5051706;28;20542;-42
2023/12/26 03:19:55;;;;;;;0.50;0.50;;;17.20;72.80;18.30;99987.00;;;;5064451;28;20197;-43
2023/12/26 03:22:21;;;;;;;0.80;0.80;;;17.20;73.60;18.30;99982.00;;;;5042647;28;20177;-42
2023/12/26 03:24:47;;;;;;;0.60;0.60;;;17.20;72.80;18.20;99995.00;;;;5067313;28;20550;-42
2023/12/26 03:27:14;;;;;;;0.30;0.30;;;17.20;72.70;18.30;100003.00;;;;5069567;28;20551;-42
2023/12/26 03:29:40;;;;;;;0.60;0.50;;;17.20;72.80;18.20;99985.00;;;;5062752;28;20217;-42
2023/12/26 03:32:08;;;;;;;0.50;0.50;;;17.20;72.80;18.20;99998.00;;;;5065591;28;20597;-42
2023/12/26 03:34:34;;;;;;;0.50;0.50;;;17.20;72.80;18.20;99993.00;;;;5057375;28;20674;-42
2023/12/26 03:37:00;;;;;;;0.90;0.40;;;17.20;72.80;18.20;100000.00;;;;5073053;28;20261;-41
2023/12/26 03:39:25;;;;;;;0.60;0.60;;;17.20;72.90;18.20;100006.00;;;;5061532;28;20218;-41
2023/12/26 03:41:51;;;;;;;0.70;0.70;;;17.20;72.90;18.20;99987.00;;;;5063291;28;20178;-42
2023/12/26 03:44:17;;;;;;;0.80;0.80;;;17.20;72.90;17.90;99997.00;;;;5040476;28;20172;-41
2023/12/26 03:46:43;;;;;;;0.80;0.80;;;17.20;73.70;18.20;99993.00;;;;5052339;28;20192;-41
2023/12/26 03:49:10;;;;;;;1.80;0.60;;;17.10;73.00;18.20;99990.00;;;;5068208;28;20246;-41
2023/12/26 03:51:36;;;;;;;0.70;0.70;;;17.20;72.90;18.20;100002.00;;;;5063126;28;20213;-42
2023/12/26 03:54:02;;;;;;;0.43;0.43;;;17.10;72.80;18.20;99999.00;;;;5064533;28;20185;-42
2023/12/26 03:56:31;;;;;;;0.70;0.70;;;17.20;73.10;18.10;100013.00;;;;5066426;28;20275;-42
2023/12/26 03:58:58;;;;;;;0.90;0.90;;;17.10;73.00;18.10;100014.00;;;;5067683;28;20181;-42
2023/12/26 04:01:24;;;;;;;0.47;0.47;;;17.10;72.90;18.20;99937.00;;;;5042185;28;20254;-41
2023/12/26 04:03:50;;;;;;;0.70;0.70;;;17.10;72.90;18.10;100014.00;;;;5067175;28;20263;-44
2023/12/26 04:06:16;;;;;;;0.73;0.73;;;17.10;72.90;18.10;100012.00;;;;5053138;28;20219;-43
2023/12/26 04:08:42;;;;;;;0.90;0.90;;;17.10;73.70;18.10;100014.00;;;;5064829;28;20178;-41
2023/12/26 04:11:09;;;;;;;0.70;0.70;;;17.10;72.90;18.10;100019.00;;;;5068470;28;20206;-43
2023/12/26 04:13:35;;;;;;;0.80;0.80;;;17.10;72.90;18.10;100034.00;;;;5063658;28;20693;-44
2023/12/26 04:16:01;;;;;;;0.87;0.87;;;17.10;72.90;18.10;100024.00;;;;5064981;28;20178;-41
2023/12/26 04:18:27;;;;;;;1.03;0.80;;;17.00;72.80;18.10;100018.00;;;;5040577;28;20173;-42
2023/12/26 04:20:53;;;;;;;0.87;0.80;;;17.00;73.60;18.10;100020.00;;;;5066678;28;20799;-41
2023/12/26 04:23:18;;;;;;;1.10;0.90;;;17.00;73.00;18.10;100026.00;;;;5067279;28;20260;-43
2023/12/26 04:25:44;;;;;;;0.97;0.70;;;17.00;73.10;18.10;100026.00;;;;5063199;28;20182;-42
2023/12/26 04:28:10;;;;;;;1.67;0.80;;;17.10;73.20;18.10;100023.00;;;;5065415;28;20239;-41
2023/12/26 04:30:36;;;;;;;2.73;1.00;;;17.00;73.30;18.00;100025.00;;;;5066093;28;20557;-41
2023/12/26 04:33:03;;;;;;;0.60;0.53;;;17.00;74.30;18.00;100026.00;;;;5067504;28;20212;-41
2023/12/26 04:35:28;;;;;;;2.47;0.80;;;17.00;73.20;18.00;100019.00;;;;5058691;28;20182;-42
2023/12/26 04:37:54;;;;;;;3.47;0.70;;;17.00;73.20;18.00;100023.00;;;;5066535;28;20516;-42
2023/12/26 04:40:20;;;;;;;1.17;1.00;;;17.00;73.20;18.00;100019.00;;;;5065877;28;20224;-41
2023/12/26 04:42:46;;;;;;;2.30;1.10;;;17.00;73.20;18.00;100027.00;;;;5062800;28;20266;-41
2023/12/26 04:45:12;;;;;;;2.43;1.03;;;17.00;73.20;18.00;100031.00;;;;5074713;28;20850;-43
2023/12/26 04:47:38;;;;;;;2.07;0.90;;;17.00;73.20;18.00;100035.00;;;;5069032;28;20190;-42
2023/12/26 04:50:04;;;;;;;0.90;0.90;;;17.00;73.40;18.00;100025.00;;;;5068210;28;20202;-42
2023/12/26 04:52:30;;;;;;;1.50;0.80;;;17.00;73.30;18.00;100041.00;;;;5063382;28;20232;-42
2023/12/26 04:54:56;;;;;;;2.17;0.70;;;17.00;73.30;18.00;100038.00;;;;5063232;28;20675;-42
2023/12/26 04:57:22;;;;;;;3.47;1.03;;;16.90;73.10;18.00;100050.00;;;;5065843;28;20176;-43
2023/12/26 04:59:48;;;;;;;1.83;1.00;;;17.00;73.20;18.00;100058.00;;;;5066683;28;20197;-42
2023/12/26 05:02:13;;;;;;;1.70;1.30;;;17.00;73.20;18.00;100051.00;;;;5055551;28;20239;-42
2023/12/26 05:04:39;;;;;;;1.20;0.53;;;17.00;73.20;18.00;100047.00;;;;5066010;28;20188;-42
2023/12/26 05:07:05;;;;;;;1.00;0.90;;;17.00;73.20;18.00;100045.00;;;;5067516;28;20629;-41
2023/12/26 05:09:30;;;;;;;0.63;0.57;;;17.00;73.20;18.00;100049.00;;;;5062601;28;20650;-41
2023/12/26 05:11:56;;;;;;;1.17;0.80;;;17.00;73.20;18.00;100057.00;;;;5062693;28;20658;-42
2023/12/26 05:14:22;;;;;;;1.17;1.07;;;16.90;73.10;17.90;100065.00;;;;5039403;28;20627;-41
2023/12/26 05:16:50;;;;;;;1.03;0.93;;;17.00;73.20;17.90;100065.00;;;;5065383;28;20251;-41
2023/12/26 05:19:17;;;;;;;1.37;1.00;;;17.00;73.20;17.90;100051.00;;;;5066294;28;20229;-42
2023/12/26 05:21:43;;;;;;;1.03;0.73;;;16.90;73.10;17.90;100067.00;;;;5062247;28;20189;-41
2023/12/26 05:24:08;;;;;;;3.97;1.10;;;16.90;73.10;17.90;100064.00;;;;5053967;28;20682;-41
2023/12/26 05:26:42;;;;;;;3.60;1.10;;;16.90;73.10;17.90;100086.00;;;;5065262;28;20242;-43
2023/12/26 05:29:08;;;;;;;1.00;0.90;;;16.90;73.20;17.90;100078.00;;;;5067010;28;20235;-41
2023/12/26 05:31:34;;;;;;;1.80;1.17;;;16.90;73.30;17.90;100083.00;;;;5065115;28;20209;-41
2023/12/26 05:34:02;;;;;;;1.63;1.10;;;16.90;73.30;17.90;100096.00;;;;5065593;28;20234;-42
2023/12/26 05:36:28;;;;;;;1.10;0.80;;;16.90;73.20;17.90;100101.00;;;;5065186;28;20260;-43
2023/12/26 05:38:54;;;;;;;0.80;0.80;;;16.90;73.20;17.90;100107.00;;;;5065347;28;20183;-41
2023/12/26 05:41:20;;;;;;;2.73;0.60;;;16.90;73.30;17.90;100107.00;;;;5065521;28;20203;-41
2023/12/26 05:43:45;;;;;;;3.07;1.27;;;16.90;73.20;17.90;100075.00;;;;5062802;28;20192;-45
2023/12/26 05:46:11;;;;;;;2.67;1.10;;;16.80;73.30;17.90;100124.00;;;;5064387;28;20194;-41
2023/12/26 05:48:37;;;;;;;1.60;0.77;;;16.90;73.30;17.90;100128.00;;;;5064895;28;20224;-42
2023/12/26 05:51:03;;;;;;;2.23;1.00;;;16.80;73.30;17.80;100138.00;;;;5066011;28;20201;-41
2023/12/26 05:53:30;;;;;;;0.93;0.90;;;16.90;73.50;17.90;100155.00;;;;5052040;28;20185;-41
2023/12/26 05:55:57;;;;;;;1.40;1.17;;;16.90;73.50;17.90;100154.00;;;;5065585;28;20184;-41
2023/12/26 05:58:24;;;;;;;1.53;1.27;;;16.80;73.40;17.80;100159.00;;;;5064960;28;20545;-41
2023/12/26 06:00:50;;;;;;;0.77;0.77;;;16.80;73.50;17.80;100162.00;;;;5065188;28;20583;-42
2023/12/26 06:03:15;;;;;;;1.67;1.20;;;16.80;73.70;17.80;100156.00;;;;5066309;28;20185;-42
2023/12/26 06:05:41;;;;;;;1.90;1.07;;;16.80;73.70;17.80;100162.00;;;;5065748;28;20187;-41
2023/12/26 06:08:07;;;;;;;3.67;1.30;;;16.80;73.90;17.80;100170.00;;;;5066814;28;20187;-41
2023/12/26 06:10:33;;;;;;;1.07;1.00;;;16.80;73.90;17.80;100163.00;;;;5061027;28;20198;-42
2023/12/26 06:12:59;;;;;;;1.47;1.10;;;16.80;73.90;17.80;100170.00;;;;5068902;28;20201;-42
2023/12/26 06:15:24;;;;;;;1.73;0.87;;;16.80;73.90;17.80;100178.00;;;;5064637;28;20264;-42
2023/12/26 06:17:50;;;;;;;2.00;1.13;;;16.80;73.90;17.80;100195.00;;;;5066709;28;20208;-41
2023/12/26 06:20:16;;;;;;;2.53;1.30;;;16.80;73.90;17.80;100188.00;;;;5063624;28;20230;-41
2023/12/26 06:22:42;;;;;;;4.23;1.20;;;16.80;73.90;17.70;100188.00;;;;5068087;28;20236;-41
2023/12/26 06:25:08;;;;;;;2.93;1.33;;;16.80;73.90;17.60;100193.00;;;;5069627;28;20191;-41
2023/12/26 06:27:34;;;;;;;2.40;1.00;;;16.80;73.90;17.80;100204.00;;;;5062151;28;20178;-41
2023/12/26 06:29:59;;;;;;;1.60;1.30;;;16.80;73.90;17.80;100202.00;;;;5051208;28;20232;-42
2023/12/26 06:32:25;;;;;;;2.00;1.00;;;16.70;73.80;17.80;100214.00;;;;5050092;28;20200;-42
2023/12/26 06:34:51;;;;;;;1.50;1.40;;;16.80;73.90;17.80;100212.00;;;;5050361;28;20181;-42
2023/12/26 06:37:17;;;;;;;1.43;0.83;;;16.70;73.80;17.80;100215.00;;;;5060589;28;20325;-42
2023/12/26 06:39:43;;;;;;;0.90;0.90;;;16.80;73.90;17.70;100227.00;;;;5067887;28;20200;-42
2023/12/26 06:42:11;;;;;;;1.67;1.00;;;16.80;73.90;17.70;100235.00;;;;5054737;28;20218;-42
2023/12/26 06:44:36;;;;;;;2.80;1.03;;;16.80;73.90;17.70;100226.00;;;;5038358;28;20641;-42
2023/12/26 06:47:03;;;;;;;0.83;0.73;;;16.70;73.80;17.70;100220.00;;;;5063725;28;20199;-41
2023/12/26 06:49:29;;;;;;;1.47;1.27;;;16.70;73.80;17.70;100223.00;;;;5054850;28;20548;-42
2023/12/26 06:51:55;;;;;;;0.97;0.77;;;16.70;74.60;17.70;100222.00;;;;5064678;28;20207;-42
2023/12/26 06:54:20;;;;;;;0.70;0.70;;;16.70;73.80;17.70;100223.00;;;;5070749;28;20260;-42
2023/12/26 06:56:46;;;;;;;1.27;1.17;;;16.70;73.80;17.70;100223.00;;;;5061838;28;20233;-42
2023/12/26 06:59:13;;;;;;;0.93;0.90;;;16.70;73.80;17.70;100226.00;;;;5079309;28;20208;-42
2023/12/26 07:01:45;;;;;;;1.07;1.00;;;16.70;73.80;17.70;100231.00;;;;5059901;28;20276;-41
2023/12/26 07:04:11;;;;;;;1.20;1.10;;;16.70;73.80;17.70;100239.00;;;;5056481;28;20204;-41
2023/12/26 07:06:37;;;;;;;1.10;1.07;;;16.70;73.80;17.70;100240.00;;;;5062957;28;20180;-41
2023/12/26 07:09:02;;;;;;;0.97;0.87;;;16.60;73.80;17.70;100261.00;;;;5064604;28;20246;-41
2023/12/26 07:11:28;;;;;;;1.17;1.07;;;16.60;73.90;17.70;100272.00;;;;5065853;28;20232;-41
2023/12/26 07:13:54;;;;;;;1.50;1.20;;;16.60;73.90;17.70;100262.00;;;;5064034;28;20219;-42
2023/12/26 07:16:20;;;;;;;0.97;0.90;;;16.60;73.90;17.70;100256.00;;;;5065384;28;20167;-42
2023/12/26 07:18:47;;;;;;;1.23;1.00;;;16.60;73.70;17.70;100284.00;;;;5078540;28;20253;-42
2023/12/26 07:21:16;;;;;;;0.93;0.90;;;16.60;73.90;17.70;100289.00;;;;5072264;28;20197;-41
2023/12/26 07:23:46;;;;;;;0.97;0.97;;;16.60;73.90;17.70;100291.00;;;;5063104;28;20258;-41
2023/12/26 07:26:13;;;;;;;1.27;1.07;;;16.60;73.90;17.70;100286.00;;;;5065359;28;20172;-42
2023/12/26 07:28:38;;;;;;;1.07;0.70;;;16.60;73.90;17.60;100249.00;;;;5065617;28;20189;-41
2023/12/26 07:31:04;;;;;;;1.33;1.23;;;16.60;73.90;17.60;100284.00;;;;5067463;28;20202;-42
2023/12/26 07:33:30;;;;;;;0.60;0.60;;;16.60;73.90;17.60;100308.00;;;;5061002;28;20314;-41
2023/12/26 07:35:57;;;;;;;2.27;1.10;;;16.60;73.90;17.60;100304.00;;;;5053222;28;20206;-41
2023/12/26 07:38:26;;;;;;;0.80;0.80;;;16.60;74.30;17.60;100299.00;;;;5064612;28;20560;-42
2023/12/26 07:40:52;;;;;;;2.20;1.10;;;16.60;74.20;17.60;100314.00;;;;5062978;28;20214;-40
2023/12/26 07:43:18;;;;;;;1.17;1.00;;;16.60;74.10;17.60;100309.00;;;;5069538;28;20245;-41
2023/12/26 07:45:43;;;;;;;1.53;1.20;;;16.60;74.10;17.60;100342.00;;;;5066796;28;20560;-41
2023/12/26 07:48:10;;;;;;;1.23;1.13;;;16.60;74.00;17.60;100347.00;;;;5065889;28;20188;-41
2023/12/26 07:50:36;;;;;;;0.83;0.80;;;16.60;74.00;17.60;100352.00;;;;5063332;28;20238;-42
2023/12/26 07:53:04;;;;;;;0.87;0.87;;;16.60;74.00;17.60;100343.00;;;;5064191;28;20583;-42
2023/12/26 07:55:32;;;;;;;0.87;0.83;;;16.50;74.00;17.60;100370.00;;;;5040573;28;20210;-42
2023/12/26 07:57:58;;;;;;;1.00;0.90;;;16.50;73.90;17.60;100363.00;;;;5066143;28;20177;-41
2023/12/26 08:00:23;;;;;;;0.87;0.87;;;16.50;73.90;17.60;100360.00;;;;5064890;28;20200;-42
2023/12/26 08:02:49;;;;;;;0.90;0.90;;;16.50;74.70;17.60;100374.00;;;;5062638;28;20191;-42
2023/12/26 08:05:15;;;;;;;1.13;0.60;;;16.50;73.90;17.50;100377.00;;;;5078911;28;20223;-42
2023/12/26 08:07:41;;;;;;;0.80;0.80;;;16.50;73.80;17.60;100371.00;;;;5063929;28;20217;-41
2023/12/26 08:10:07;;;;;;;0.97;0.97;;;16.50;73.70;17.50;100382.00;;;;5053656;28;20208;-43
2023/12/26 08:12:33;;;;;;;0.70;0.70;;;16.50;73.70;17.50;100385.00;;;;5062663;28;20210;-42
2023/12/26 08:14:59;;;;;;;0.97;0.97;;;16.50;73.60;17.50;100383.00;;;;5067604;28;20714;-41
2023/12/26 08:17:24;;;;;;;1.70;1.23;;;16.50;73.60;17.60;100396.00;;;;5066530;28;20658;-42
2023/12/26 08:19:50;;;;;;;0.90;0.90;;;16.50;73.60;17.50;100398.00;;;;5060299;28;20209;-41
2023/12/26 08:22:16;;;;;;;0.83;0.83;;;16.50;73.70;17.50;100410.00;;;;5053450;28;20190;-42
2023/12/26 08:24:42;;;;;;;1.00;0.87;;;16.50;73.80;17.50;100413.00;;;;5068113;28;20182;-41
2023/12/26 08:27:07;;;;;;;0.83;0.83;;;16.50;73.80;17.50;100421.00;;;;5063251;28;20322;-41
2023/12/26 08:29:33;;;;;;;1.40;0.80;;;16.50;73.70;17.50;100414.00;;;;5052226;28;20188;-41
2023/12/26 08:31:59;;;;;;;1.03;0.93;;;16.50;73.70;17.50;100421.00;;;;5063592;28;20665;-42
2023/12/26 08:34:25;;;;;;;1.47;1.30;;;16.50;74.10;17.50;100423.00;;;;5064640;28;20244;-43
2023/12/26 08:36:51;;;;;;;1.20;1.10;;;16.40;74.10;17.50;100428.00;;;;5062667;28;20569;-41
2023/12/26 08:39:17;;;;;;;1.70;1.17;;;16.50;74.10;17.50;100428.00;;;;5051639;28;20675;-42
2023/12/26 08:41:43;;;;;;;1.20;1.10;;;16.50;74.10;17.50;100446.00;;;;5065743;28;20183;-41
2023/12/26 08:44:10;;;;;;;1.20;1.10;;;16.50;74.10;17.50;100440.00;;;;5037553;28;20570;-41
2023/12/26 08:46:36;;;;;;;2.17;1.33;;;16.50;74.40;17.50;100444.00;;;;5060810;28;20190;-42
2023/12/26 08:49:03;;;;;;;1.60;1.50;;;16.60;74.70;17.50;100444.00;;;;5060757;28;20188;-41
2023/12/26 08:51:29;;;;;;;1.30;1.30;;;16.60;74.80;17.50;100454.00;;;;5069027;28;20261;-42
2023/12/26 08:53:55;;;;;;;1.67;1.30;;;16.60;74.80;17.50;100462.00;;;;5064396;28;20213;-42
2023/12/26 08:56:22;;;;;;;2.27;1.13;;;16.80;75.20;17.60;100485.00;;;;5062727;28;20178;-42
2023/12/26 08:58:48;;;;;;;2.83;1.17;;;16.80;75.20;17.60;100472.00;;;;5050045;28;20593;-42
2023/12/26 09:01:14;;;;;;;3.63;1.40;;;16.80;75.30;17.60;100483.00;;;;5052704;28;20211;-42
2023/12/26 09:03:41;;;;;;;3.47;1.50;;;16.90;75.20;17.60;100486.00;;;;5059725;28;20182;-42
2023/12/26 09:06:10;;;;;;;2.67;1.33;;;16.90;75.20;17.70;100496.00;;;;5064310;28;20670;-41
2023/12/26 09:08:36;;;;;;;3.23;1.50;;;16.90;75.00;17.70;100499.00;;;;5055740;28;20185;-42
2023/12/26 09:11:03;;;;;;;1.93;1.47;;;16.90;75.00;17.70;100495.00;;;;5065500;28;20251;-42
2023/12/26 09:13:29;;;;;;;1.63;0.90;;;17.00;75.00;17.70;100505.00;;;;5062255;28;20209;-42
2023/12/26 09:15:55;;;;;;;1.77;1.30;;;17.00;74.90;17.70;100513.00;;;;5034849;28;20180;-42
2023/12/26 09:18:21;;;;;;;2.40;1.33;;;17.00;74.90;17.70;100510.00;;;;5061783;28;20667;-43
2023/12/26 09:20:46;;;;;;;1.33;1.10;;;17.00;74.90;17.80;100509.00;;;;5060482;28;20286;-41
2023/12/26 09:23:13;;;;;;;3.00;1.00;;;17.00;75.00;17.80;100510.00;;;;5063203;28;20184;-41
2023/12/26 09:25:39;;;;;;;2.23;1.70;;;17.00;74.90;17.80;100518.00;;;;5064354;28;20694;-42
2023/12/26 09:28:08;;;;;;;1.43;1.33;;;17.00;75.00;17.80;100526.00;;;;5062680;28;20187;-41
2023/12/26 09:30:34;;;;;;;2.57;1.30;;;17.00;75.70;17.80;100531.00;;;;5061793;28;20624;-42
2023/12/26 09:33:00;;;;;;;2.33;1.57;;;17.00;76.00;17.80;100541.00;;;;5059495;28;20210;-42
2023/12/26 09:35:25;;;;;;;3.87;1.50;;;17.00;76.00;17.80;100536.00;;;;5068125;28;20895;-42
2023/12/26 09:37:51;;;;;;;6.73;1.53;;;17.10;76.30;17.80;100528.00;;;;5059427;28;20551;-42
2023/12/26 09:40:18;;;;;;;4.47;1.70;;;17.10;76.20;17.80;100537.00;;;;5064531;28;20668;-42
2023/12/26 09:42:44;;;;;;;4.17;1.50;;;17.00;76.80;17.80;100523.00;;;;5060933;28;20181;-42
2023/12/26 09:45:11;;;;;;;2.43;1.30;;;17.00;76.40;17.80;100538.00;;;;5063937;28;20194;-42
2023/12/26 09:47:41;;;;;;;4.60;1.37;;;17.00;76.40;17.80;100531.00;;;;5062852;28;20179;-42
2023/12/26 09:50:08;;;;;;;3.00;1.27;;;17.10;76.30;17.80;100563.00;;;;5050695;28;20327;-43
2023/12/26 09:52:38;;;;;;;2.73;1.30;;;17.00;76.40;17.80;100551.00;;;;5064192;28;20219;-42
2023/12/26 09:55:05;;;;;;;1.80;1.13;;;17.00;76.40;17.60;100553.00;;;;5066019;28;20176;-42
2023/12/26 09:57:31;;;;;;;5.13;1.67;;;17.10;76.60;17.80;100555.00;;;;5027005;28;20178;-42
2023/12/26 09:59:56;;;;;;;4.23;1.50;;;17.00;76.50;17.70;100541.00;;;;5033067;28;20233;-45
2023/12/26 10:02:22;;;;;;;1.73;1.20;;;17.10;76.50;17.80;100557.00;;;;5032605;28;20178;-42
2023/12/26 10:04:48;;;;;;;2.07;1.20;;;17.10;76.40;17.80;100588.00;;;;5050618;28;20546;-42
2023/12/26 10:07:14;;;;;;;2.23;1.50;;;17.10;76.90;17.90;100583.00;;;;5056354;28;20186;-42
2023/12/26 10:09:41;;;;;;;4.70;1.70;;;17.10;77.40;17.90;100589.00;;;;5063323;28;20548;-42
2023/12/26 10:12:07;;;;;;;1.63;1.50;;;17.10;77.70;17.80;100588.00;;;;5065002;28;20295;-42
2023/12/26 10:14:33;;;;;;;5.13;1.40;;;17.10;78.10;17.80;100578.00;;;;5048104;28;20596;-49
2023/12/26 10:16:59;;;;;;;3.63;1.70;;;17.10;78.50;17.90;100596.00;;;;5056564;28;20239;-42
2023/12/26 10:19:25;;;;;;;4.17;1.90;;;17.20;78.80;17.90;100598.00;;;;5066878;28;20636;-42
2023/12/26 10:21:52;;;;;;;4.33;1.60;;;17.20;79.30;17.80;100601.00;;;;5067643;28;20210;-41
2023/12/26 10:24:18;;;;;;;4.60;1.57;;;17.20;79.40;17.80;100605.00;;;;5043029;28;20650;-41
2023/12/26 10:26:44;;;;;;;3.40;1.63;;;17.20;79.20;17.90;100607.00;;;;5062124;28;20699;-42
2023/12/26 10:29:14;;;;;;;2.40;1.53;;;17.20;79.20;17.90;100605.00;;;;5062127;28;20267;-42
2023/12/26 10:31:43;;;;;;;4.30;1.57;;;17.20;79.00;17.90;100606.00;;;;5075029;28;20205;-41
2023/12/26 10:34:17;;;;;;;2.47;1.30;;;17.20;78.90;17.90;100606.00;;;;5069194;28;20209;-41
2023/12/26 10:36:47;;;;;;;3.90;1.50;;;17.20;78.50;17.90;100613.00;;;;5061216;28;20184;-42
2023/12/26 10:39:14;;;;;;;3.97;1.57;;;17.20;78.20;17.80;100612.00;;;;5065955;28;20180;-43
2023/12/26 10:41:43;;;;;;;5.73;1.70;;;17.30;78.40;17.80;100609.00;;;;5064681;28;20204;-43
2023/12/26 10:44:09;;;;;;;3.37;1.70;;;17.20;78.40;17.80;100628.00;;;;5065352;28;20180;-43